Aloi — PJ5075 — position and weather

sailwx.info

Track history (hours):
 
Tides and Currents Weather Stations Pressure Air Temp Water Temp Dewpoint Dewpoint Depression Visibility Wind Speed Wind Dir Waves Ship Positions

Aloi

Last reported at 2014-Mar-14 16:18 UTC. Time now 2014-Oct-26 09:38 UTC.
Position N 17°30' W 063°00'.
Warning: this ship's position is months out of date.

Length 12 m.

Type: Port tender. MMSI: 306919000.

Date/timePositionNaut miles runAvg speedWind from/ knotsBaromVisibWave heightAir tempDewpointWater temp
2014-Mar-14 16:18N 17°30' W 063°00'0 0.1
2014-Mar-14 13:33N 17°30' W 063°00'1 0.7
2014-Mar-14 11:29N 17°29' W 062°60'1 0.1
2014-Mar-14 05:22N 17°29' W 063°00'2 1.9
2014-Mar-14 04:31N 17°30' W 063°01'2 1.8
2014-Mar-14 03:25N 17°29' W 062°59'1 0.8
2014-Mar-14 02:29N 17°29' W 062°60'0 0.0
2014-Mar-14 00:09N 17°29' W 062°60'  
2014-Mar-11 11:13N 17°29' W 062°59'1 0.3
2014-Mar-11 07:10N 17°30' W 063°00'0 0.2
2014-Mar-11 05:09N 17°30' W 063°00'0 0.5
2014-Mar-11 04:16N 17°30' W 063°00'1 0.2
2014-Mar-10 23:18N 17°29' W 062°59'1 0.5
2014-Mar-10 22:12N 17°29' W 062°60'1 0.1
2014-Mar-10 09:32N 17°30' W 063°00'0 0.3
2014-Mar-10 08:32N 17°30' W 063°00'0 0.0
2014-Mar-10 07:28N 17°30' W 063°00'0 0.0
2014-Mar-10 06:33N 17°30' W 063°00'0 0.0
2014-Mar-10 05:24N 17°30' W 063°00'0 0.5
2014-Mar-10 04:33N 17°30' W 063°01'2 1.8
2014-Mar-10 03:30N 17°29' W 062°59'1 1.1
2014-Mar-10 02:32N 17°29' W 063°01'1 0.5
2014-Mar-10 01:13N 17°30' W 063°00'1 1.1
2014-Mar-10 00:26N 17°29' W 062°60'1 0.5
2014-Mar-09 23:22N 17°29' W 062°59'0 0.0
2014-Mar-09 15:23N 17°29' W 062°59'0 0.0
2014-Mar-09 11:21N 17°29' W 062°60'1 0.2
2014-Mar-09 05:32N 17°29' W 063°01'1 0.9
2014-Mar-09 04:33N 17°30' W 063°00'0 0.0
2014-Mar-09 00:12N 17°30' W 063°00'2 2.4
2014-Mar-08 23:34N 17°29' W 062°59'1 0.1
2014-Mar-08 05:23N 17°29' W 063°00'1 1.3
2014-Mar-08 04:33N 17°29' W 062°59'1 0.4
2014-Mar-08 02:32N 17°29' W 062°60'1 0.8
2014-Mar-08 01:33N 17°30' W 063°00'1 0.4
2014-Mar-07 23:33N 17°29' W 063°00'0 0.1
2014-Mar-07 20:33N 17°29' W 063°00'0 0.1
2014-Mar-07 18:23N 17°29' W 063°01'1 0.4
2014-Mar-07 16:33N 17°30' W 063°00'1 0.9
2014-Mar-07 15:33N 17°29' W 063°00'1 0.5
2014-Mar-07 14:04N 17°30' W 063°00'0 0.0
2014-Mar-07 07:28N 17°30' W 063°00'0 0.1
2014-Mar-07 06:29N 17°30' W 063°00'0 0.4
2014-Mar-07 05:33N 17°30' W 063°01'0 0.4
2014-Mar-07 04:32N 17°30' W 063°00'0 0.1
2014-Mar-07 02:05N 17°30' W 063°00'0 0.9
2014-Mar-07 01:33N 17°30' W 063°00'0 0.3
2014-Mar-07 00:32N 17°30' W 063°00'1 0.6
2014-Mar-06 23:08N 17°29' W 062°60'0 0.3
2014-Mar-06 21:33N 17°29' W 063°00'1 0.8
2014-Mar-06 20:21N 17°30' W 063°00'1 0.6
2014-Mar-06 18:05N 17°29' W 062°59'0 0.1
2014-Mar-06 15:10N 17°29' W 062°59'0 0.0
2014-Mar-06 14:32N 17°29' W 062°59'1 1.3
2014-Mar-06 13:31N 17°30' W 063°00'0 0.2
2014-Mar-06 11:33N 17°30' W 063°00'0 0.1
2014-Mar-06 08:03N 17°30' W 063°00'0 0.6
2014-Mar-06 07:33N 17°30' W 063°00'0 0.2
2014-Mar-06 06:18N 17°30' W 063°00'0 0.3
2014-Mar-06 05:20N 17°30' W 063°00'1 1.3
2014-Mar-06 04:14N 17°29' W 062°59'1 0.3
2014-Mar-06 01:32N 17°29' W 062°60'1 0.6
2014-Mar-06 00:32N 17°29' W 063°00'1 0.7
2014-Mar-05 23:26N 17°29' W 062°60'1 1.0
2014-Mar-05 22:34N 17°30' W 063°00'1 0.4
2014-Mar-05 20:32N 17°29' W 062°60'1 0.3
2014-Mar-05 18:33N 17°30' W 063°00'1 0.3
2014-Mar-05 15:28N 17°30' W 063°01'2 1.9
2014-Mar-05 14:20N 17°29' W 062°59'1 0.4
2014-Mar-05 12:30N 17°29' W 062°60'1 0.7
2014-Mar-05 11:20N 17°29' W 062°59'0 0.6
2014-Mar-05 10:32N 17°29' W 062°60'1 0.4
2014-Mar-05 07:33N 17°30' W 063°00'0 0.1
2014-Mar-05 06:27N 17°30' W 063°00'0 0.1
2014-Mar-05 04:23N 17°30' W 063°00'0 0.1
2014-Mar-05 02:12N 17°30' W 063°00'1 1.7
2014-Mar-05 01:32N 17°30' W 063°02'1 1.4
2014-Mar-05 00:33N 17°29' W 063°00'1 0.6
2014-Mar-04 23:20N 17°29' W 062°60'2 1.8
2014-Mar-04 22:28N 17°30' W 063°01'1 0.5
2014-Mar-04 20:23N 17°29' W 062°60'1 0.3
2014-Mar-04 17:22N 17°30' W 063°00'1 1.1
2014-Mar-04 16:33N 17°31' W 063°01'  
Track history (hours):
 
Tides and Currents Weather Stations Pressure Air Temp Water Temp Dewpoint Dewpoint Depression Visibility Wind Speed Wind Dir Waves Ship Positions

Aloi

Last reported at 2014-Mar-14 16:18 UTC. Time now 2014-Oct-26 09:38 UTC.
Position N 17°30' W 063°00'.
Warning: this ship's position is months out of date.

Length 12 m.

Type: Port tender. MMSI: 306919000.

Date/timePositionNaut miles runAvg speedWind from/ knotsBaromVisibWave heightAir tempDewpointWater temp
2014-Mar-14 16:18N 17°30' W 063°00'0 0.1
2014-Mar-14 13:33N 17°30' W 063°00'1 0.7
2014-Mar-14 11:29N 17°29' W 062°60'1 0.1
2014-Mar-14 05:22N 17°29' W 063°00'2 1.9
2014-Mar-14 04:31N 17°30' W 063°01'2 1.8
2014-Mar-14 03:25N 17°29' W 062°59'1 0.8
2014-Mar-14 02:29N 17°29' W 062°60'0 0.0
2014-Mar-14 00:09N 17°29' W 062°60'  
2014-Mar-11 11:13N 17°29' W 062°59'1 0.3
2014-Mar-11 07:10N 17°30' W 063°00'0 0.2
2014-Mar-11 05:09N 17°30' W 063°00'0 0.5
2014-Mar-11 04:16N 17°30' W 063°00'1 0.2
2014-Mar-10 23:18N 17°29' W 062°59'1 0.5
2014-Mar-10 22:12N 17°29' W 062°60'1 0.1
2014-Mar-10 09:32N 17°30' W 063°00'0 0.3
2014-Mar-10 08:32N 17°30' W 063°00'0 0.0
2014-Mar-10 07:28N 17°30' W 063°00'0 0.0
2014-Mar-10 06:33N 17°30' W 063°00'0 0.0
2014-Mar-10 05:24N 17°30' W 063°00'0 0.5
2014-Mar-10 04:33N 17°30' W 063°01'2 1.8
2014-Mar-10 03:30N 17°29' W 062°59'1 1.1
2014-Mar-10 02:32N 17°29' W 063°01'1 0.5
2014-Mar-10 01:13N 17°30' W 063°00'1 1.1
2014-Mar-10 00:26N 17°29' W 062°60'1 0.5
2014-Mar-09 23:22N 17°29' W 062°59'0 0.0
2014-Mar-09 15:23N 17°29' W 062°59'0 0.0
2014-Mar-09 11:21N 17°29' W 062°60'1 0.2
2014-Mar-09 05:32N 17°29' W 063°01'1 0.9
2014-Mar-09 04:33N 17°30' W 063°00'0 0.0
2014-Mar-09 00:12N 17°30' W 063°00'2 2.4
2014-Mar-08 23:34N 17°29' W 062°59'1 0.1
2014-Mar-08 05:23N 17°29' W 063°00'1 1.3
2014-Mar-08 04:33N 17°29' W 062°59'1 0.4
2014-Mar-08 02:32N 17°29' W 062°60'1 0.8
2014-Mar-08 01:33N 17°30' W 063°00'1 0.4
2014-Mar-07 23:33N 17°29' W 063°00'0 0.1
2014-Mar-07 20:33N 17°29' W 063°00'0 0.1
2014-Mar-07 18:23N 17°29' W 063°01'1 0.4
2014-Mar-07 16:33N 17°30' W 063°00'1 0.9
2014-Mar-07 15:33N 17°29' W 063°00'1 0.5
2014-Mar-07 14:04N 17°30' W 063°00'0 0.0
2014-Mar-07 07:28N 17°30' W 063°00'0 0.1
2014-Mar-07 06:29N 17°30' W 063°00'0 0.4
2014-Mar-07 05:33N 17°30' W 063°01'0 0.4
2014-Mar-07 04:32N 17°30' W 063°00'0 0.1
2014-Mar-07 02:05N 17°30' W 063°00'0 0.9
2014-Mar-07 01:33N 17°30' W 063°00'0 0.3
2014-Mar-07 00:32N 17°30' W 063°00'1 0.6
2014-Mar-06 23:08N 17°29' W 062°60'0 0.3
2014-Mar-06 21:33N 17°29' W 063°00'1 0.8
2014-Mar-06 20:21N 17°30' W 063°00'1 0.6
2014-Mar-06 18:05N 17°29' W 062°59'0 0.1
2014-Mar-06 15:10N 17°29' W 062°59'0 0.0
2014-Mar-06 14:32N 17°29' W 062°59'1 1.3
2014-Mar-06 13:31N 17°30' W 063°00'0 0.2
2014-Mar-06 11:33N 17°30' W 063°00'0 0.1
2014-Mar-06 08:03N 17°30' W 063°00'0 0.6
2014-Mar-06 07:33N 17°30' W 063°00'0 0.2
2014-Mar-06 06:18N 17°30' W 063°00'0 0.3
2014-Mar-06 05:20N 17°30' W 063°00'1 1.3
2014-Mar-06 04:14N 17°29' W 062°59'1 0.3
2014-Mar-06 01:32N 17°29' W 062°60'1 0.6
2014-Mar-06 00:32N 17°29' W 063°00'1 0.7
2014-Mar-05 23:26N 17°29' W 062°60'1 1.0
2014-Mar-05 22:34N 17°30' W 063°00'1 0.4
2014-Mar-05 20:32N 17°29' W 062°60'1 0.3
2014-Mar-05 18:33N 17°30' W 063°00'1 0.3
2014-Mar-05 15:28N 17°30' W 063°01'2 1.9
2014-Mar-05 14:20N 17°29' W 062°59'1 0.4
2014-Mar-05 12:30N 17°29' W 062°60'1 0.7
2014-Mar-05 11:20N 17°29' W 062°59'0 0.6
2014-Mar-05 10:32N 17°29' W 062°60'1 0.4
2014-Mar-05 07:33N 17°30' W 063°00'0 0.1
2014-Mar-05 06:27N 17°30' W 063°00'0 0.1
2014-Mar-05 04:23N 17°30' W 063°00'0 0.1
2014-Mar-05 02:12N 17°30' W 063°00'1 1.7
2014-Mar-05 01:32N 17°30' W 063°02'1 1.4
2014-Mar-05 00:33N 17°29' W 063°00'1 0.6
2014-Mar-04 23:20N 17°29' W 062°60'2 1.8
2014-Mar-04 22:28N 17°30' W 063°01'1 0.5
2014-Mar-04 20:23N 17°29' W 062°60'1 0.3
2014-Mar-04 17:22N 17°30' W 063°00'1 1.1
2014-Mar-04 16:33N 17°31' W 063°01'  

Dump ship's entire track history